SYX12 EGKA-EGHQ
Flight info
| Callsign | SYX12 |
|---|---|
| Flight time | 1h 14m |
| Altitude | 6000 |
| Route | GWC DCT SAM DCT DAWLY DCT NQY |
| Aircraft | C208/L-SDF/C |
Departure
| Time | 2026-04-24 12:48 |
|---|---|
| Airport | Brighton City Airport (EGKA) |
Arrival
| Time | 2026-04-24 14:02 |
|---|---|
| Airport | Cornwall Airport Newquay (EGHQ) |
| Time | Latitude | Longitude | Altitude | Speed | Heading |
|---|---|---|---|---|---|
| 2026-04-24 12:34 | 50.83435 | -0.29051 | 7 ft | 0 kts | 149° |
| 2026-04-24 12:43 | 50.83434 | -0.29049 | 7 ft | 2 kts | 133° |
| 2026-04-24 12:43 | 50.83465 | -0.29062 | 7 ft | 13 kts | 23° |
| 2026-04-24 12:44 | 50.83492 | -0.28952 | 7 ft | 7 kts | 73° |
| 2026-04-24 12:44 | 50.83507 | -0.28872 | 7 ft | 10 kts | 70° |
| 2026-04-24 12:44 | 50.83597 | -0.28828 | 7 ft | 21 kts | 336° |
| 2026-04-24 12:44 | 50.83682 | -0.28984 | 7 ft | 18 kts | 303° |
| 2026-04-24 12:45 | 50.83750 | -0.29139 | 7 ft | 17 kts | 306° |
| 2026-04-24 12:45 | 50.83822 | -0.29304 | 7 ft | 20 kts | 315° |
| 2026-04-24 12:45 | 50.83941 | -0.29344 | 7 ft | 9 kts | 342° |
| 2026-04-24 12:45 | 50.83947 | -0.29344 | 7 ft | 0 kts | 16° |
| 2026-04-24 12:46 | 50.83950 | -0.29341 | 7 ft | 1 kts | 39° |
| 2026-04-24 12:46 | 50.83990 | -0.29428 | 7 ft | 15 kts | 290° |
| 2026-04-24 12:46 | 50.83968 | -0.29476 | 7 ft | 0 kts | 199° |
| 2026-04-24 12:46 | 50.83961 | -0.29480 | 7 ft | 11 kts | 200° |
| 2026-04-24 12:47 | 50.83722 | -0.29627 | 11 ft | 61 kts | 201° |
| 2026-04-24 12:47 | 50.83224 | -0.29960 | 58 ft | 88 kts | 202° |
| 2026-04-24 12:47 | 50.82666 | -0.30415 | 257 ft | 90 kts | 206° |
| 2026-04-24 12:47 | 50.82083 | -0.30955 | 356 ft | 103 kts | 206° |
| 2026-04-24 12:48 | 50.81481 | -0.31601 | 510 ft | 109 kts | 229° |
| 2026-04-24 12:48 | 50.81403 | -0.32818 | 648 ft | 118 kts | 278° |
| 2026-04-24 12:48 | 50.81503 | -0.34131 | 807 ft | 122 kts | 274° |
| 2026-04-24 12:48 | 50.81652 | -0.35491 | 979 ft | 129 kts | 280° |
| 2026-04-24 12:49 | 50.81830 | -0.36912 | 1144 ft | 134 kts | 280° |
| 2026-04-24 12:49 | 50.82008 | -0.38377 | 1304 ft | 137 kts | 279° |
| 2026-04-24 12:49 | 50.82185 | -0.39839 | 1458 ft | 138 kts | 279° |
| 2026-04-24 12:49 | 50.82367 | -0.41334 | 1613 ft | 138 kts | 279° |
| 2026-04-24 12:50 | 50.82549 | -0.42827 | 1766 ft | 138 kts | 280° |
| 2026-04-24 12:50 | 50.82723 | -0.44336 | 1923 ft | 140 kts | 279° |
| 2026-04-24 12:50 | 50.82893 | -0.45856 | 2069 ft | 141 kts | 280° |
| 2026-04-24 12:50 | 50.83068 | -0.47387 | 2218 ft | 141 kts | 280° |
| 2026-04-24 12:51 | 50.83240 | -0.48927 | 2373 ft | 143 kts | 279° |
| 2026-04-24 12:51 | 50.83407 | -0.50478 | 2522 ft | 143 kts | 279° |
| 2026-04-24 12:51 | 50.83572 | -0.52032 | 2673 ft | 142 kts | 280° |
| 2026-04-24 12:51 | 50.83731 | -0.53573 | 2820 ft | 145 kts | 279° |
| 2026-04-24 12:52 | 50.83892 | -0.55162 | 2971 ft | 144 kts | 279° |
| 2026-04-24 12:52 | 50.84046 | -0.56724 | 3119 ft | 146 kts | 279° |
| 2026-04-24 12:52 | 50.84422 | -0.58183 | 3264 ft | 144 kts | 309° |
| 2026-04-24 12:52 | 50.84850 | -0.59581 | 3399 ft | 142 kts | 279° |
| 2026-04-24 12:53 | 50.84928 | -0.61143 | 3561 ft | 143 kts | 274° |
| 2026-04-24 12:53 | 50.85004 | -0.62740 | 3711 ft | 147 kts | 274° |
| 2026-04-24 12:53 | 50.85077 | -0.64342 | 3857 ft | 143 kts | 274° |
| 2026-04-24 12:53 | 50.85135 | -0.65908 | 4014 ft | 144 kts | 274° |
| 2026-04-24 12:54 | 50.85201 | -0.67484 | 4160 ft | 142 kts | 273° |
| 2026-04-24 12:54 | 50.85264 | -0.69036 | 4307 ft | 142 kts | 274° |
| 2026-04-24 12:54 | 50.85331 | -0.70585 | 4457 ft | 141 kts | 273° |
| 2026-04-24 12:54 | 50.85392 | -0.72137 | 4605 ft | 142 kts | 274° |
| 2026-04-24 12:55 | 50.85458 | -0.73693 | 4758 ft | 142 kts | 273° |
| 2026-04-24 12:55 | 50.85523 | -0.75259 | 4908 ft | 142 kts | 273° |
| 2026-04-24 12:55 | 50.85716 | -0.76771 | 5042 ft | 139 kts | 287° |
| 2026-04-24 12:55 | 50.85976 | -0.78206 | 5195 ft | 136 kts | 285° |
| 2026-04-24 12:56 | 50.86220 | -0.79651 | 5342 ft | 136 kts | 285° |
| 2026-04-24 12:56 | 50.86476 | -0.81099 | 5483 ft | 136 kts | 285° |
| 2026-04-24 12:56 | 50.86724 | -0.82551 | 5635 ft | 138 kts | 285° |
| 2026-04-24 12:56 | 50.86978 | -0.84020 | 5782 ft | 137 kts | 285° |
| 2026-04-24 12:57 | 50.87226 | -0.85463 | 5936 ft | 136 kts | 285° |
| 2026-04-24 12:57 | 50.87472 | -0.86907 | 6079 ft | 135 kts | 285° |
| 2026-04-24 12:57 | 50.87720 | -0.88336 | 6235 ft | 135 kts | 285° |
| 2026-04-24 12:57 | 50.87967 | -0.89778 | 6382 ft | 136 kts | 285° |
| 2026-04-24 12:58 | 50.88219 | -0.91238 | 6526 ft | 138 kts | 284° |
| 2026-04-24 12:58 | 50.88470 | -0.92715 | 6583 ft | 143 kts | 284° |
| 2026-04-24 12:58 | 50.88738 | -0.94273 | 6564 ft | 150 kts | 285° |
| 2026-04-24 12:58 | 50.89017 | -0.95881 | 6530 ft | 155 kts | 285° |
| 2026-04-24 12:59 | 50.89302 | -0.97566 | 6468 ft | 163 kts | 285° |
| 2026-04-24 12:59 | 50.89604 | -0.99317 | 6353 ft | 167 kts | 285° |
| 2026-04-24 12:59 | 50.89909 | -1.01101 | 6306 ft | 166 kts | 284° |
| 2026-04-24 12:59 | 50.90206 | -1.02861 | 6304 ft | 165 kts | 285° |
| 2026-04-24 13:00 | 50.90502 | -1.04600 | 6301 ft | 163 kts | 285° |
| 2026-04-24 13:00 | 50.90799 | -1.06336 | 6301 ft | 163 kts | 284° |
| 2026-04-24 13:00 | 50.91091 | -1.08068 | 6301 ft | 163 kts | 285° |
| 2026-04-24 13:00 | 50.91386 | -1.09797 | 6299 ft | 162 kts | 285° |
| 2026-04-24 13:01 | 50.91678 | -1.11533 | 6302 ft | 163 kts | 285° |
| 2026-04-24 13:01 | 50.91978 | -1.13283 | 6302 ft | 165 kts | 285° |
| 2026-04-24 13:01 | 50.92275 | -1.15044 | 6300 ft | 165 kts | 284° |
| 2026-04-24 13:01 | 50.92571 | -1.16806 | 6299 ft | 164 kts | 285° |
| 2026-04-24 13:02 | 50.92864 | -1.18548 | 6300 ft | 163 kts | 285° |
| 2026-04-24 13:02 | 50.93152 | -1.20256 | 6295 ft | 162 kts | 284° |
| 2026-04-24 13:02 | 50.93444 | -1.21981 | 6295 ft | 162 kts | 285° |
| 2026-04-24 13:02 | 50.93736 | -1.23717 | 6289 ft | 162 kts | 284° |
| 2026-04-24 13:03 | 50.94025 | -1.25443 | 6290 ft | 163 kts | 285° |
| 2026-04-24 13:03 | 50.94322 | -1.27176 | 6294 ft | 163 kts | 284° |
| 2026-04-24 13:03 | 50.94611 | -1.28922 | 6288 ft | 163 kts | 284° |
| 2026-04-24 13:03 | 50.94896 | -1.30646 | 6289 ft | 161 kts | 284° |
| 2026-04-24 13:04 | 50.95182 | -1.32354 | 6288 ft | 160 kts | 284° |
| 2026-04-24 13:04 | 50.95452 | -1.34061 | 6284 ft | 159 kts | 278° |
| 2026-04-24 13:04 | 50.95339 | -1.35771 | 6290 ft | 157 kts | 251° |
| 2026-04-24 13:04 | 50.95040 | -1.37440 | 6291 ft | 157 kts | 253° |
| 2026-04-24 13:05 | 50.94761 | -1.39127 | 6293 ft | 158 kts | 253° |
| 2026-04-24 13:05 | 50.94477 | -1.40803 | 6293 ft | 158 kts | 252° |
| 2026-04-24 13:05 | 50.94189 | -1.42482 | 6293 ft | 158 kts | 252° |
| 2026-04-24 13:05 | 50.93902 | -1.44168 | 6293 ft | 159 kts | 253° |
| 2026-04-24 13:06 | 50.93617 | -1.45841 | 6292 ft | 159 kts | 252° |
| 2026-04-24 13:06 | 50.93327 | -1.47538 | 6293 ft | 160 kts | 253° |
| 2026-04-24 13:06 | 50.93039 | -1.49235 | 6289 ft | 159 kts | 253° |
| 2026-04-24 13:06 | 50.92747 | -1.50918 | 6293 ft | 158 kts | 253° |
| 2026-04-24 13:07 | 50.92461 | -1.52608 | 6295 ft | 159 kts | 252° |
| 2026-04-24 13:07 | 50.92173 | -1.54298 | 6291 ft | 158 kts | 253° |
| 2026-04-24 13:07 | 50.91885 | -1.55981 | 6287 ft | 157 kts | 252° |
| 2026-04-24 13:07 | 50.91593 | -1.57660 | 6287 ft | 158 kts | 252° |
| 2026-04-24 13:08 | 50.91306 | -1.59342 | 6287 ft | 159 kts | 253° |
| 2026-04-24 13:08 | 50.91018 | -1.61023 | 6286 ft | 157 kts | 252° |
| 2026-04-24 13:08 | 50.90735 | -1.62671 | 6289 ft | 157 kts | 252° |
| 2026-04-24 13:09 | 50.90152 | -1.66054 | 6280 ft | 159 kts | 253° |
| 2026-04-24 13:09 | 50.89858 | -1.67754 | 6285 ft | 160 kts | 252° |
| 2026-04-24 13:09 | 50.89563 | -1.69454 | 6278 ft | 160 kts | 252° |
| 2026-04-24 13:09 | 50.89273 | -1.71144 | 6276 ft | 158 kts | 253° |
| 2026-04-24 13:10 | 50.88982 | -1.72834 | 6273 ft | 159 kts | 252° |
| 2026-04-24 13:10 | 50.88688 | -1.74524 | 6273 ft | 159 kts | 252° |
| 2026-04-24 13:10 | 50.88394 | -1.76212 | 6275 ft | 159 kts | 252° |
| 2026-04-24 13:10 | 50.88104 | -1.77905 | 6273 ft | 160 kts | 252° |
| 2026-04-24 13:11 | 50.87810 | -1.79588 | 6272 ft | 158 kts | 252° |
| 2026-04-24 13:11 | 50.87517 | -1.81258 | 6276 ft | 157 kts | 252° |
| 2026-04-24 13:11 | 50.87224 | -1.82940 | 6269 ft | 159 kts | 252° |
| 2026-04-24 13:11 | 50.86939 | -1.84605 | 6266 ft | 158 kts | 252° |
| 2026-04-24 13:12 | 50.86644 | -1.86285 | 6265 ft | 159 kts | 252° |
| 2026-04-24 13:12 | 50.86348 | -1.87966 | 6266 ft | 159 kts | 252° |
| 2026-04-24 13:12 | 50.86054 | -1.89650 | 6265 ft | 159 kts | 252° |
| 2026-04-24 13:12 | 50.85759 | -1.91333 | 6268 ft | 159 kts | 252° |
| 2026-04-24 13:13 | 50.85470 | -1.93021 | 6269 ft | 159 kts | 252° |
| 2026-04-24 13:13 | 50.85174 | -1.94701 | 6268 ft | 158 kts | 252° |
| 2026-04-24 13:13 | 50.84878 | -1.96377 | 6264 ft | 157 kts | 252° |
| 2026-04-24 13:13 | 50.84585 | -1.98043 | 6261 ft | 157 kts | 252° |
| 2026-04-24 13:14 | 50.84295 | -1.99705 | 6265 ft | 157 kts | 252° |
| 2026-04-24 13:14 | 50.83997 | -2.01389 | 6263 ft | 160 kts | 252° |
| 2026-04-24 13:14 | 50.83703 | -2.03056 | 6261 ft | 159 kts | 252° |
| 2026-04-24 13:14 | 50.83414 | -2.04734 | 6264 ft | 158 kts | 252° |
| 2026-04-24 13:15 | 50.83117 | -2.06393 | 6263 ft | 156 kts | 251° |
| 2026-04-24 13:15 | 50.82820 | -2.08053 | 6267 ft | 157 kts | 252° |
| 2026-04-24 13:15 | 50.82622 | -2.09182 | 6266 ft | 159 kts | 252° |
| 2026-04-24 13:15 | 50.82326 | -2.10871 | 6267 ft | 160 kts | 252° |
| 2026-04-24 13:16 | 50.82027 | -2.12570 | 6273 ft | 161 kts | 252° |
| 2026-04-24 13:16 | 50.81729 | -2.14245 | 6270 ft | 160 kts | 252° |
| 2026-04-24 13:16 | 50.81430 | -2.15930 | 6268 ft | 159 kts | 252° |
| 2026-04-24 13:16 | 50.81129 | -2.17618 | 6265 ft | 159 kts | 252° |
| 2026-04-24 13:17 | 50.80833 | -2.19299 | 6265 ft | 158 kts | 252° |
| 2026-04-24 13:17 | 50.80535 | -2.20968 | 6261 ft | 158 kts | 252° |
| 2026-04-24 13:17 | 50.80235 | -2.22644 | 6257 ft | 158 kts | 252° |
| 2026-04-24 13:17 | 50.79940 | -2.24304 | 6264 ft | 158 kts | 252° |
| 2026-04-24 13:18 | 50.79641 | -2.25985 | 6265 ft | 159 kts | 252° |
| 2026-04-24 13:18 | 50.79344 | -2.27664 | 6266 ft | 159 kts | 252° |
| 2026-04-24 13:18 | 50.79041 | -2.29348 | 6267 ft | 160 kts | 252° |
| 2026-04-24 13:18 | 50.78739 | -2.31039 | 6266 ft | 159 kts | 251° |
| 2026-04-24 13:19 | 50.78438 | -2.32721 | 6267 ft | 159 kts | 252° |
| 2026-04-24 13:19 | 50.78136 | -2.34407 | 6265 ft | 159 kts | 252° |
| 2026-04-24 13:19 | 50.77839 | -2.36065 | 6266 ft | 159 kts | 251° |
| 2026-04-24 13:19 | 50.77537 | -2.37756 | 6265 ft | 159 kts | 252° |
| 2026-04-24 13:20 | 50.77233 | -2.39439 | 6264 ft | 159 kts | 251° |
| 2026-04-24 13:20 | 50.76930 | -2.41125 | 6266 ft | 159 kts | 251° |
| 2026-04-24 13:20 | 50.76625 | -2.42815 | 6265 ft | 160 kts | 251° |
| 2026-04-24 13:20 | 50.76321 | -2.44507 | 6264 ft | 159 kts | 251° |
| 2026-04-24 13:21 | 50.76018 | -2.46186 | 6265 ft | 159 kts | 251° |
| 2026-04-24 13:21 | 50.75717 | -2.47873 | 6265 ft | 159 kts | 252° |
| 2026-04-24 13:21 | 50.75411 | -2.49554 | 6262 ft | 159 kts | 251° |
| 2026-04-24 13:21 | 50.75107 | -2.51232 | 6264 ft | 159 kts | 251° |
| 2026-04-24 13:22 | 50.74805 | -2.52905 | 6266 ft | 158 kts | 251° |
| 2026-04-24 13:22 | 50.74500 | -2.54578 | 6269 ft | 159 kts | 252° |
| 2026-04-24 13:22 | 50.74196 | -2.56269 | 6270 ft | 162 kts | 251° |
| 2026-04-24 13:22 | 50.73889 | -2.57948 | 6262 ft | 160 kts | 251° |
| 2026-04-24 13:23 | 50.73585 | -2.59628 | 6259 ft | 159 kts | 251° |
| 2026-04-24 13:23 | 50.73282 | -2.61291 | 6260 ft | 157 kts | 251° |
| 2026-04-24 13:23 | 50.72978 | -2.62956 | 6263 ft | 159 kts | 251° |
| 2026-04-24 13:23 | 50.72675 | -2.64637 | 6262 ft | 160 kts | 251° |
| 2026-04-24 13:24 | 50.72366 | -2.66374 | 6279 ft | 167 kts | 251° |
| 2026-04-24 13:24 | 50.72046 | -2.68115 | 6273 ft | 163 kts | 251° |
| 2026-04-24 13:24 | 50.71727 | -2.69823 | 6266 ft | 162 kts | 250° |
| 2026-04-24 13:24 | 50.71412 | -2.71519 | 6264 ft | 160 kts | 251° |
| 2026-04-24 13:25 | 50.71113 | -2.73179 | 6261 ft | 158 kts | 251° |
| 2026-04-24 13:25 | 50.70811 | -2.74847 | 6266 ft | 160 kts | 251° |
| 2026-04-24 13:25 | 50.70500 | -2.76543 | 6258 ft | 161 kts | 251° |
| 2026-04-24 13:25 | 50.70189 | -2.78226 | 6259 ft | 159 kts | 251° |
| 2026-04-24 13:26 | 50.69882 | -2.79899 | 6260 ft | 158 kts | 251° |
| 2026-04-24 13:26 | 50.69576 | -2.81561 | 6257 ft | 158 kts | 251° |
| 2026-04-24 13:26 | 50.69271 | -2.83220 | 6258 ft | 157 kts | 251° |
| 2026-04-24 13:26 | 50.68967 | -2.84873 | 6259 ft | 157 kts | 251° |
| 2026-04-24 13:27 | 50.68663 | -2.86524 | 6259 ft | 156 kts | 251° |
| 2026-04-24 13:27 | 50.68359 | -2.88173 | 6258 ft | 157 kts | 251° |
| 2026-04-24 13:27 | 50.68055 | -2.89819 | 6260 ft | 156 kts | 251° |
| 2026-04-24 13:27 | 50.67752 | -2.91462 | 6261 ft | 156 kts | 251° |
| 2026-04-24 13:28 | 50.67446 | -2.93112 | 6262 ft | 156 kts | 251° |
| 2026-04-24 13:28 | 50.67143 | -2.94752 | 6263 ft | 156 kts | 251° |
| 2026-04-24 13:28 | 50.66838 | -2.96391 | 6260 ft | 156 kts | 251° |
| 2026-04-24 13:28 | 50.66533 | -2.98036 | 6258 ft | 156 kts | 251° |
| 2026-04-24 13:29 | 50.66228 | -2.99682 | 6260 ft | 156 kts | 250° |
| 2026-04-24 13:29 | 50.65926 | -3.01307 | 6259 ft | 156 kts | 251° |
| 2026-04-24 13:29 | 50.65620 | -3.02952 | 6259 ft | 156 kts | 250° |
| 2026-04-24 13:29 | 50.65315 | -3.04594 | 6259 ft | 156 kts | 250° |
| 2026-04-24 13:30 | 50.65008 | -3.06238 | 6260 ft | 156 kts | 250° |
| 2026-04-24 13:30 | 50.64701 | -3.07887 | 6261 ft | 157 kts | 250° |
| 2026-04-24 13:30 | 50.64394 | -3.09537 | 6260 ft | 157 kts | 250° |
| 2026-04-24 13:30 | 50.64085 | -3.11185 | 6259 ft | 157 kts | 250° |
| 2026-04-24 13:31 | 50.63778 | -3.12835 | 6260 ft | 158 kts | 250° |
| 2026-04-24 13:31 | 50.63465 | -3.14518 | 6266 ft | 162 kts | 250° |
| 2026-04-24 13:31 | 50.63149 | -3.16209 | 6265 ft | 160 kts | 250° |
| 2026-04-24 13:31 | 50.62833 | -3.17882 | 6263 ft | 159 kts | 250° |
| 2026-04-24 13:32 | 50.62520 | -3.19546 | 6260 ft | 158 kts | 250° |
| 2026-04-24 13:32 | 50.62213 | -3.21182 | 6259 ft | 159 kts | 250° |
| 2026-04-24 13:32 | 50.61897 | -3.22874 | 6264 ft | 163 kts | 250° |
| 2026-04-24 13:32 | 50.61579 | -3.24567 | 6265 ft | 160 kts | 250° |
| 2026-04-24 13:33 | 50.61263 | -3.26238 | 6264 ft | 159 kts | 250° |
| 2026-04-24 13:33 | 50.60949 | -3.27901 | 6263 ft | 158 kts | 250° |
| 2026-04-24 13:33 | 50.60636 | -3.29553 | 6259 ft | 157 kts | 250° |
| 2026-04-24 13:33 | 50.60324 | -3.31205 | 6258 ft | 157 kts | 250° |
| 2026-04-24 13:34 | 50.60013 | -3.32852 | 6258 ft | 157 kts | 250° |
| 2026-04-24 13:34 | 50.59702 | -3.34501 | 6259 ft | 157 kts | 250° |
| 2026-04-24 13:34 | 50.59390 | -3.36145 | 6261 ft | 156 kts | 250° |
| 2026-04-24 13:34 | 50.59079 | -3.37786 | 6258 ft | 157 kts | 250° |
| 2026-04-24 13:35 | 50.58767 | -3.39434 | 6258 ft | 157 kts | 250° |
| 2026-04-24 13:35 | 50.58455 | -3.41075 | 6259 ft | 157 kts | 250° |
| 2026-04-24 13:35 | 50.58144 | -3.42718 | 6259 ft | 156 kts | 250° |
| 2026-04-24 13:35 | 50.57831 | -3.44358 | 6258 ft | 157 kts | 250° |
| 2026-04-24 13:36 | 50.57519 | -3.45998 | 6259 ft | 156 kts | 250° |
| 2026-04-24 13:36 | 50.57329 | -3.47668 | 6259 ft | 158 kts | 261° |
| 2026-04-24 13:36 | 50.57205 | -3.49387 | 6264 ft | 159 kts | 260° |
| 2026-04-24 13:36 | 50.57068 | -3.51123 | 6262 ft | 160 kts | 259° |
| 2026-04-24 13:37 | 50.56929 | -3.52850 | 6264 ft | 159 kts | 259° |
| 2026-04-24 13:37 | 50.56787 | -3.54590 | 6262 ft | 160 kts | 259° |
| 2026-04-24 13:37 | 50.56650 | -3.56319 | 6263 ft | 159 kts | 259° |
| 2026-04-24 13:37 | 50.56506 | -3.58053 | 6264 ft | 160 kts | 259° |
| 2026-04-24 13:38 | 50.56367 | -3.59774 | 6261 ft | 161 kts | 260° |
| 2026-04-24 13:38 | 50.56229 | -3.61520 | 6264 ft | 161 kts | 259° |
| 2026-04-24 13:38 | 50.56087 | -3.63266 | 6260 ft | 160 kts | 259° |
| 2026-04-24 13:38 | 50.55946 | -3.65001 | 6261 ft | 159 kts | 259° |
| 2026-04-24 13:39 | 50.55805 | -3.66729 | 6263 ft | 160 kts | 259° |
| 2026-04-24 13:39 | 50.55661 | -3.68468 | 6264 ft | 161 kts | 259° |
| 2026-04-24 13:39 | 50.55520 | -3.70212 | 6261 ft | 161 kts | 259° |
| 2026-04-24 13:39 | 50.55377 | -3.71954 | 6262 ft | 161 kts | 259° |
| 2026-04-24 13:40 | 50.55236 | -3.73693 | 6268 ft | 160 kts | 259° |
| 2026-04-24 13:40 | 50.55092 | -3.75436 | 6265 ft | 160 kts | 259° |
| 2026-04-24 13:40 | 50.54948 | -3.77178 | 6263 ft | 161 kts | 259° |
| 2026-04-24 13:40 | 50.54801 | -3.78924 | 6260 ft | 161 kts | 259° |
| 2026-04-24 13:41 | 50.54660 | -3.80657 | 6260 ft | 160 kts | 259° |
| 2026-04-24 13:41 | 50.54520 | -3.82359 | 6255 ft | 159 kts | 259° |
| 2026-04-24 13:41 | 50.54376 | -3.84084 | 6251 ft | 158 kts | 259° |
| 2026-04-24 13:41 | 50.54231 | -3.85816 | 6256 ft | 162 kts | 259° |
| 2026-04-24 13:42 | 50.54086 | -3.87578 | 6255 ft | 162 kts | 259° |
| 2026-04-24 13:42 | 50.53943 | -3.89320 | 6252 ft | 160 kts | 259° |
| 2026-04-24 13:42 | 50.53795 | -3.91048 | 6247 ft | 159 kts | 259° |
| 2026-04-24 13:42 | 50.53649 | -3.92772 | 6252 ft | 160 kts | 259° |
| 2026-04-24 13:43 | 50.53505 | -3.94508 | 6251 ft | 160 kts | 259° |
| 2026-04-24 13:43 | 50.53361 | -3.96245 | 6253 ft | 161 kts | 259° |
| 2026-04-24 13:43 | 50.53211 | -3.97998 | 6245 ft | 162 kts | 259° |
| 2026-04-24 13:43 | 50.53063 | -3.99748 | 6244 ft | 161 kts | 259° |
| 2026-04-24 13:44 | 50.52919 | -4.01488 | 6246 ft | 161 kts | 259° |
| 2026-04-24 13:44 | 50.52770 | -4.03235 | 6246 ft | 161 kts | 259° |
| 2026-04-24 13:44 | 50.52621 | -4.04977 | 6239 ft | 160 kts | 259° |
| 2026-04-24 13:44 | 50.52477 | -4.06674 | 6240 ft | 158 kts | 259° |
| 2026-04-24 13:45 | 50.52329 | -4.08413 | 6242 ft | 159 kts | 258° |
| 2026-04-24 13:45 | 50.52184 | -4.10122 | 6243 ft | 160 kts | 259° |
| 2026-04-24 13:45 | 50.52035 | -4.11850 | 6233 ft | 159 kts | 258° |
| 2026-04-24 13:45 | 50.51886 | -4.13582 | 6232 ft | 159 kts | 259° |
| 2026-04-24 13:46 | 50.51740 | -4.15306 | 6229 ft | 159 kts | 259° |
| 2026-04-24 13:46 | 50.51593 | -4.17019 | 6236 ft | 158 kts | 258° |
| 2026-04-24 13:46 | 50.51442 | -4.18754 | 6230 ft | 161 kts | 259° |
| 2026-04-24 13:46 | 50.51296 | -4.20506 | 6227 ft | 161 kts | 259° |
| 2026-04-24 13:47 | 50.51147 | -4.22244 | 6233 ft | 160 kts | 258° |
| 2026-04-24 13:47 | 50.50990 | -4.23958 | 6227 ft | 162 kts | 258° |
| 2026-04-24 13:47 | 50.50839 | -4.25726 | 6224 ft | 164 kts | 259° |
| 2026-04-24 13:47 | 50.50688 | -4.27502 | 6225 ft | 164 kts | 258° |
| 2026-04-24 13:48 | 50.50532 | -4.29278 | 6223 ft | 164 kts | 258° |
| 2026-04-24 13:48 | 50.50374 | -4.31057 | 6217 ft | 165 kts | 258° |
| 2026-04-24 13:48 | 50.50220 | -4.32842 | 6213 ft | 164 kts | 258° |
| 2026-04-24 13:48 | 50.50068 | -4.34606 | 6217 ft | 162 kts | 258° |
| 2026-04-24 13:49 | 50.49913 | -4.36372 | 6212 ft | 163 kts | 258° |
| 2026-04-24 13:49 | 50.49759 | -4.38133 | 6208 ft | 162 kts | 258° |
| 2026-04-24 13:49 | 50.49601 | -4.39893 | 6210 ft | 164 kts | 258° |
| 2026-04-24 13:49 | 50.49446 | -4.41671 | 6205 ft | 164 kts | 258° |
| 2026-04-24 13:50 | 50.49291 | -4.43445 | 6208 ft | 163 kts | 258° |
| 2026-04-24 13:50 | 50.49135 | -4.45199 | 6207 ft | 161 kts | 258° |
| 2026-04-24 13:50 | 50.48978 | -4.46949 | 6207 ft | 163 kts | 258° |
| 2026-04-24 13:50 | 50.48824 | -4.48717 | 6209 ft | 164 kts | 258° |
| 2026-04-24 13:51 | 50.48668 | -4.50492 | 6209 ft | 163 kts | 258° |
| 2026-04-24 13:51 | 50.48513 | -4.52230 | 6196 ft | 163 kts | 258° |
| 2026-04-24 13:51 | 50.48352 | -4.53977 | 6194 ft | 162 kts | 258° |
| 2026-04-24 13:51 | 50.48193 | -4.55731 | 6195 ft | 162 kts | 258° |
| 2026-04-24 13:52 | 50.48037 | -4.57491 | 6195 ft | 162 kts | 258° |
| 2026-04-24 13:52 | 50.47882 | -4.59238 | 6195 ft | 162 kts | 258° |
| 2026-04-24 13:52 | 50.47726 | -4.60988 | 6192 ft | 161 kts | 258° |
| 2026-04-24 13:52 | 50.47568 | -4.62741 | 6195 ft | 163 kts | 258° |
| 2026-04-24 13:53 | 50.47414 | -4.64501 | 6189 ft | 161 kts | 258° |
| 2026-04-24 13:53 | 50.47251 | -4.66248 | 6194 ft | 162 kts | 258° |
| 2026-04-24 13:53 | 50.47094 | -4.68011 | 6189 ft | 163 kts | 258° |
| 2026-04-24 13:53 | 50.46935 | -4.69769 | 6190 ft | 161 kts | 257° |
| 2026-04-24 13:54 | 50.46775 | -4.71516 | 6123 ft | 162 kts | 257° |
| 2026-04-24 13:54 | 50.46619 | -4.73190 | 5920 ft | 148 kts | 257° |
| 2026-04-24 13:54 | 50.46470 | -4.74755 | 5729 ft | 143 kts | 257° |
| 2026-04-24 13:54 | 50.46327 | -4.76274 | 5539 ft | 141 kts | 257° |
| 2026-04-24 13:55 | 50.46337 | -4.77820 | 5342 ft | 141 kts | 279° |
| 2026-04-24 13:55 | 50.46502 | -4.79307 | 5161 ft | 140 kts | 274° |
| 2026-04-24 13:55 | 50.46635 | -4.80801 | 4975 ft | 137 kts | 274° |
| 2026-04-24 13:55 | 50.46769 | -4.82289 | 4802 ft | 139 kts | 275° |
| 2026-04-24 13:56 | 50.46903 | -4.83798 | 4624 ft | 140 kts | 275° |
| 2026-04-24 13:56 | 50.47034 | -4.85329 | 4455 ft | 143 kts | 274° |
| 2026-04-24 13:56 | 50.47162 | -4.86916 | 4299 ft | 150 kts | 275° |
| 2026-04-24 13:56 | 50.47297 | -4.88574 | 4144 ft | 155 kts | 275° |
| 2026-04-24 13:57 | 50.47434 | -4.90265 | 3972 ft | 156 kts | 275° |
| 2026-04-24 13:57 | 50.47566 | -4.91937 | 3812 ft | 155 kts | 275° |
| 2026-04-24 13:57 | 50.47702 | -4.93633 | 3641 ft | 157 kts | 275° |
| 2026-04-24 13:57 | 50.47837 | -4.95336 | 3463 ft | 157 kts | 275° |
| 2026-04-24 13:58 | 50.47974 | -4.97038 | 3290 ft | 158 kts | 275° |
| 2026-04-24 13:58 | 50.48105 | -4.98724 | 3112 ft | 155 kts | 275° |
| 2026-04-24 13:58 | 50.48238 | -5.00418 | 2937 ft | 158 kts | 275° |
| 2026-04-24 13:58 | 50.48370 | -5.02137 | 2759 ft | 158 kts | 275° |
| 2026-04-24 13:59 | 50.48456 | -5.03274 | 2639 ft | 158 kts | 275° |
| 2026-04-24 13:59 | 50.48633 | -5.05540 | 2406 ft | 155 kts | 275° |
| 2026-04-24 13:59 | 50.48749 | -5.07203 | 2227 ft | 154 kts | 267° |
| 2026-04-24 13:59 | 50.48382 | -5.08669 | 2041 ft | 140 kts | 213° |
| 2026-04-24 14:00 | 50.47556 | -5.08943 | 1817 ft | 118 kts | 150° |
| 2026-04-24 14:00 | 50.47033 | -5.08023 | 1561 ft | 112 kts | 118° |
| 2026-04-24 14:00 | 50.46688 | -5.06970 | 1357 ft | 109 kts | 116° |
| 2026-04-24 14:00 | 50.46341 | -5.05830 | 1187 ft | 120 kts | 115° |
| 2026-04-24 14:01 | 50.45971 | -5.04645 | 961 ft | 117 kts | 117° |
| 2026-04-24 14:01 | 50.45579 | -5.03583 | 713 ft | 110 kts | 118° |
| 2026-04-24 14:01 | 50.45207 | -5.02567 | 545 ft | 105 kts | 117° |
| 2026-04-24 14:01 | 50.44844 | -5.01570 | 411 ft | 105 kts | 118° |
| 2026-04-24 14:02 | 50.44485 | -5.00615 | 328 ft | 93 kts | 120° |
| 2026-04-24 14:02 | 50.44298 | -5.00116 | 339 ft | 65 kts | 120° |
| 2026-04-24 14:02 | 50.44149 | -4.99724 | 353 ft | 30 kts | 120° |
| 2026-04-24 14:02 | 50.44115 | -4.99497 | 351 ft | 17 kts | 13° |
| 2026-04-24 14:03 | 50.44211 | -4.99487 | 356 ft | 10 kts | 3° |
| 2026-04-24 14:03 | 50.44278 | -4.99481 | 355 ft | 10 kts | 1° |
| 2026-04-24 14:03 | 50.44365 | -4.99474 | 358 ft | 13 kts | 5° |
| 2026-04-24 14:03 | 50.44405 | -4.99415 | 356 ft | 5 kts | 57° |
| 2026-04-24 14:04 | 50.44401 | -4.99384 | 356 ft | 3 kts | 184° |
| 2026-04-24 14:04 | 50.44397 | -4.99397 | 356 ft | 0 kts | 263° |